Startpagina
METAR-TAF:

METAR-TAF

Vliegvelden :

Ermelo, Zuid-Afrika

breedte: 26-29-44S, lengte: 29-58-47E, hoogte: 1737 m

Actueel weer

Dit bericht is 5 uur en het 39 minuten geleden gemaakt, om 07:23 UTC
Wind 1 kt uit het oosten
Temperatuur 22°C
Vochtigheid 60%
Druk 1027 hPa
Zicht 10 km of meer
Gebroken wolken op 1500 ft

METAR: FAEO 190723Z 10001KT 9999 BKN015 22/14 Q1027

Tijdstip: 15:02 (13:02 UTC)


TAF: ontbreekt

Waarnemingen en weersverwachtingen van meer dan 4000 vliegvelden (METAR en TAF).

De beschikbare stations zijn de gele en rode punten op de kaart.

Ga met uw muis naar het station om de naam te zien.

Klik dan om waarnemingen en weersverwachtingen te zien.

kaart wijzigen: klik op de groene knoppen met een zwart kruis om in te zoomen, op de groene knop met een streepje om uit te zoomen of op de groene pijlen voor aangrenzende kaarten.


METAR-TAF: